Time;durP1;ratioP1;P1;durP2;ratioP2;P2;SDS_P1;SDS_P2;PMS_P1;PMS_P2;Temp;Humidity;BMP_temperature;BMP_pressure;BME280_temperature;BME280_humidity;BME280_pressure;Samples;Min_cycle;Max_cycle;Signal;HPM_P1;HPM_P2
2022/10/29 00:02:04;;;;;;;16.25;8.63;;;;;;;18.45;60.22;102035.34;5072392;28;20398;-66
2022/10/29 00:04:33;;;;;;;13.43;8.15;;;;;;;18.46;60.25;102037.06;5071960;28;20040;-66
2022/10/29 00:06:59;;;;;;;12.73;8.68;;;;;;;18.47;60.29;102030.66;5072209;28;20098;-66
2022/10/29 00:09:26;;;;;;;15.30;8.60;;;;;;;18.49;60.06;102025.94;5061636;28;20045;-66
2022/10/29 00:11:52;;;;;;;13.88;8.65;;;;;;;18.51;59.91;102029.38;5051830;28;20049;-66
2022/10/29 00:14:20;;;;;;;12.93;8.00;;;;;;;18.53;60.20;102030.13;5068829;28;20357;-66
2022/10/29 00:16:46;;;;;;;14.23;8.18;;;;;;;18.51;60.12;102021.22;5072335;28;20487;-66
2022/10/29 00:19:13;;;;;;;13.70;7.65;;;;;;;18.46;60.33;102015.31;5072260;28;20048;-67
2022/10/29 00:21:39;;;;;;;14.15;8.25;;;;;;;18.42;60.29;102007.41;5072111;28;20441;-66
2022/10/29 00:24:09;;;;;;;15.45;8.40;;;;;;;18.39;59.98;102015.84;5057947;28;20071;-66
2022/10/29 00:26:36;;;;;;;13.85;8.18;;;;;;;18.39;60.03;102009.53;5052544;28;20037;-66
2022/10/29 00:29:02;;;;;;;15.68;8.07;;;;;;;18.40;59.87;102008.53;5051651;28;20095;-65
2022/10/29 00:31:29;;;;;;;12.93;8.27;;;;;;;18.40;59.79;102006.69;5052218;28;20442;-66
2022/10/29 00:33:56;;;;;;;15.05;8.30;;;;;;;18.41;60.00;102019.28;5065936;28;20044;-66
2022/10/29 00:36:25;;;;;;;13.38;7.88;;;;;;;18.40;60.02;102017.56;5070195;28;20060;-65
2022/10/29 00:38:52;;;;;;;11.48;7.97;;;;;;;18.39;59.94;102012.25;5053197;28;20028;-66
2022/10/29 00:41:25;;;;;;;16.80;8.38;;;;;;;18.37;59.76;102012.41;5071076;28;20045;-66
2022/10/29 00:44:17;;;;;;;15.25;8.30;;;;;;;18.34;59.62;102009.94;5059359;28;20037;-66
2022/10/29 00:46:48;;;;;;;12.45;8.15;;;;;;;18.34;59.90;102014.50;5050658;28;20111;-66
2022/10/29 00:49:16;;;;;;;14.52;8.82;;;;;;;18.33;59.57;102018.22;5051308;28;20033;-66
2022/10/29 00:51:44;;;;;;;13.13;8.27;;;;;;;18.32;59.88;102017.38;5050913;28;20065;-66
2022/10/29 00:54:15;;;;;;;15.98;9.10;;;;;;;18.32;59.72;102027.38;5031552;28;20045;-66
2022/10/29 00:56:47;;;;;;;20.73;9.40;;;;;;;18.32;59.95;102022.81;5051312;28;20044;-67
2022/10/29 00:59:16;;;;;;;13.05;7.93;;;;;;;18.32;59.60;102022.81;5050975;28;20048;-66
2022/10/29 01:01:44;;;;;;;15.57;8.70;;;;;;;18.33;59.83;102020.94;5051697;28;20372;-67
2022/10/29 01:04:17;;;;;;;15.27;9.00;;;;;;;18.32;60.05;102019.22;5067355;28;20063;-66
2022/10/29 01:06:45;;;;;;;15.57;8.90;;;;;;;18.32;60.18;102022.81;5072856;28;20476;-66
2022/10/29 01:09:12;;;;;;;19.60;8.57;;;;;;;18.32;60.19;102028.25;5073080;28;20406;-66
2022/10/29 01:12:07;;;;;;;14.52;9.30;;;;;;;18.32;60.11;102028.25;5073197;28;20040;-66
2022/10/29 01:14:52;;;;;;;13.20;8.70;;;;;;;18.33;59.93;102024.53;5056547;28;20087;-66
2022/10/29 01:17:53;;;;;;;17.70;9.38;;;;;;;18.30;59.89;102019.34;5050702;28;20071;-67
2022/10/29 01:20:38;;;;;;;17.08;8.98;;;;;;;18.27;60.37;102014.16;5050650;28;20496;-66
2022/10/29 01:23:21;;;;;;;20.70;9.25;;;;;;;18.25;60.44;102023.47;5052693;28;20041;-66
2022/10/29 01:26:25;;;;;;;18.88;9.02;;;;;;;18.26;60.47;102008.88;5071781;28;20041;-66
2022/10/29 01:29:10;;;;;;;17.55;9.48;;;;;;;18.28;60.51;102006.88;5070956;28;20040;-66
2022/10/29 01:31:43;;;;;;;15.93;9.45;;;;;;;18.30;60.69;102010.31;5065329;28;20036;-66
2022/10/29 01:34:29;;;;;;;18.60;9.73;;;;;;;18.30;60.60;101994.00;5055062;28;20091;-66
2022/10/29 01:37:02;;;;;;;14.48;8.98;;;;;;;18.30;60.30;101988.56;5054433;28;20502;-67
2022/10/29 01:39:41;;;;;;;19.75;9.73;;;;;;;18.29;60.70;101990.44;5065097;28;20047;-66
2022/10/29 01:42:31;;;;;;;19.25;10.32;;;;;;;18.29;60.35;101985.00;5074819;28;20086;-66
2022/10/29 01:45:05;;;;;;;17.58;10.05;;;;;;;18.32;60.49;101995.59;5076223;28;20094;-66
2022/10/29 01:47:41;;;;;;;15.30;9.73;;;;;;;18.33;60.60;101983.72;5070058;28;20041;-66
2022/10/29 01:50:11;;;;;;;19.08;10.63;;;;;;;18.36;60.73;101985.31;5067187;28;20040;-66
2022/10/29 01:52:40;;;;;;;15.73;10.65;;;;;;;18.38;60.55;101978.75;5058020;28;20387;-66
2022/10/29 01:55:07;;;;;;;20.85;11.15;;;;;;;18.39;60.95;101980.47;5076934;28;20098;-66
2022/10/29 01:57:36;;;;;;;19.10;10.00;;;;;;;18.40;60.74;101967.75;5074890;28;20098;-66
2022/10/29 02:00:21;;;;;;;16.77;10.25;;;;;;;18.39;60.69;101971.47;5076932;28;20453;-66
2022/10/29 02:03:04;;;;;;;13.68;9.50;;;;;;;18.39;60.93;101964.16;5079132;28;20372;-66
2022/10/29 02:05:41;;;;;;;16.88;9.77;;;;;;;18.40;61.00;101963.16;5076468;28;20045;-66
2022/10/29 02:08:33;;;;;;;15.77;9.75;;;;;;;18.38;60.90;101962.44;5056607;28;20109;-66
2022/10/29 02:11:20;;;;;;;18.13;10.05;;;;;;;18.38;60.93;101959.72;5053209;28;20049;-66
2022/10/29 02:14:19;;;;;;;16.55;10.27;;;;;;;18.38;60.94;101947.97;5054453;28;20049;-66
2022/10/29 02:16:47;;;;;;;21.30;10.90;;;;;;;18.40;60.86;101941.41;5053875;28;20056;-66
2022/10/29 02:19:13;;;;;;;18.20;11.68;;;;;;;18.41;60.91;101947.72;5053701;28;20045;-66
2022/10/29 02:21:41;;;;;;;19.38;11.23;;;;;;;18.41;61.12;101943.13;5053665;28;20086;-66
2022/10/29 02:24:11;;;;;;;20.58;11.20;;;;;;;18.41;60.94;101948.56;5053973;28;20091;-67
2022/10/29 02:26:38;;;;;;;17.45;10.68;;;;;;;18.41;60.92;101943.13;5054943;28;20326;-67
2022/10/29 02:29:04;;;;;;;15.77;11.38;;;;;;;18.42;60.92;101954.88;5073936;28;20048;-66
2022/10/29 02:31:31;;;;;;;16.13;11.25;;;;;;;18.40;61.34;101946.00;5073803;28;20102;-66
2022/10/29 02:33:57;;;;;;;20.23;11.15;;;;;;;18.37;61.00;101940.81;5055599;28;20387;-66
2022/10/29 02:36:24;;;;;;;18.10;11.52;;;;;;;18.34;61.23;101941.09;5074319;28;20048;-66
2022/10/29 02:38:50;;;;;;;21.98;12.25;;;;;;;18.34;61.44;101935.63;5053933;28;20442;-66
2022/10/29 02:41:17;;;;;;;14.95;10.50;;;;;;;18.33;61.02;101928.47;5053666;28;20079;-66
2022/10/29 02:43:43;;;;;;;19.40;11.73;;;;;;;18.33;61.11;101923.91;5054282;28;20110;-65
2022/10/29 02:46:17;;;;;;;15.82;10.25;;;;;;;18.30;61.49;101917.88;5065389;28;20543;-65
2022/10/29 02:48:43;;;;;;;14.25;9.27;;;;;;;18.30;61.09;101921.44;5056116;28;20106;-66
2022/10/29 02:51:11;;;;;;;13.35;9.10;;;;;;;18.29;61.24;101911.56;5074163;28;20040;-66
2022/10/29 02:53:37;;;;;;;10.88;7.15;;;;;;;18.29;61.25;101914.28;5074817;28;20040;-66
2022/10/29 02:56:05;;;;;;;14.20;9.07;;;;;;;18.28;61.03;101914.41;5064495;28;20091;-66
2022/10/29 02:58:32;;;;;;;13.90;8.80;;;;;;;18.28;61.24;101919.84;5054391;28;20091;-65
2022/10/29 03:00:59;;;;;;;16.45;9.23;;;;;;;18.26;61.26;101922.72;5054589;28;20045;-66
2022/10/29 03:03:26;;;;;;;11.63;9.43;;;;;;;18.24;60.96;101919.25;5057217;28;20041;-65
2022/10/29 03:05:57;;;;;;;14.65;9.38;;;;;;;18.25;61.28;101903.81;5055244;28;20403;-66
2022/10/29 03:08:23;;;;;;;11.52;8.32;;;;;;;18.25;61.10;101909.25;5053538;28;20569;-66
2022/10/29 03:10:50;;;;;;;14.43;8.18;;;;;;;18.24;61.13;101913.81;5053209;28;20537;-66
2022/10/29 03:13:17;;;;;;;12.80;9.50;;;;;;;18.24;61.19;101912.97;5053708;28;20048;-66
2022/10/29 03:15:48;;;;;;;28.75;10.95;;;;;;;18.22;60.99;101918.53;5053676;28;20049;-66
2022/10/29 03:18:14;;;;;;;15.52;9.02;;;;;;;18.18;61.32;101917.06;5052966;28;20045;-66
2022/10/29 03:20:42;;;;;;;12.43;8.10;;;;;;;18.16;61.19;101915.47;5053333;28;20037;-66
2022/10/29 03:23:08;;;;;;;17.33;8.93;;;;;;;18.16;61.20;101907.31;5035370;28;20560;-66
2022/10/29 03:25:36;;;;;;;22.38;9.00;;;;;;;18.13;61.14;101903.00;5053730;28;20517;-66
2022/10/29 03:28:03;;;;;;;13.65;9.05;;;;;;;18.11;61.17;101902.28;5053360;28;20152;-66
2022/10/29 03:30:30;;;;;;;18.40;10.80;;;;;;;18.09;61.20;101910.56;5053130;28;20045;-66
2022/10/29 03:32:56;;;;;;;19.58;10.77;;;;;;;18.08;61.29;101907.97;5053188;28;20041;-66
2022/10/29 03:35:24;;;;;;;16.08;10.90;;;;;;;18.06;61.60;101899.09;5053343;28;20128;-66
2022/10/29 03:37:51;;;;;;;29.42;12.70;;;;;;;18.07;61.76;101900.81;5052478;28;20102;-66
2022/10/29 03:40:18;;;;;;;18.63;11.77;;;;;;;18.06;61.93;101899.09;5067221;28;20048;-66
2022/10/29 03:42:45;;;;;;;20.13;11.95;;;;;;;18.07;61.53;101898.97;5071552;28;20052;-67
2022/10/29 03:45:13;;;;;;;21.63;10.98;;;;;;;18.08;61.91;101899.84;5073820;28;20102;-66
2022/10/29 03:47:39;;;;;;;16.15;10.52;;;;;;;18.08;61.47;101906.13;5065855;28;20041;-66
2022/10/29 03:50:06;;;;;;;17.75;10.38;;;;;;;18.07;61.52;101898.09;5054078;28;20446;-65
2022/10/29 03:52:33;;;;;;;14.45;9.82;;;;;;;18.06;61.46;101885.50;5053981;28;20087;-66
2022/10/29 03:55:07;;;;;;;17.27;10.30;;;;;;;18.02;61.70;101887.63;5054583;28;20541;-66
2022/10/29 03:57:34;;;;;;;18.80;10.40;;;;;;;18.01;61.62;101902.22;5061277;28;20055;-66
2022/10/29 04:00:03;;;;;;;18.83;12.38;;;;;;;18.00;61.55;101899.63;5073805;28;20037;-66
2022/10/29 04:02:38;;;;;;;18.30;11.65;;;;;;;18.00;61.82;101902.34;5073905;28;20079;-66
2022/10/29 04:05:08;;;;;;;16.08;10.45;;;;;;;17.97;61.42;101889.03;5056863;28;20128;-66
2022/10/29 04:07:34;;;;;;;12.02;8.90;;;;;;;17.93;61.93;101884.84;5071776;28;20071;-66
2022/10/29 04:10:01;;;;;;;24.75;10.98;;;;;;;17.88;61.82;101893.38;5040226;28;20107;-66
2022/10/29 04:12:28;;;;;;;14.60;10.23;;;;;;;17.84;61.91;101885.63;5053226;28;20088;-66
2022/10/29 04:14:55;;;;;;;13.13;9.93;;;;;;;17.81;61.93;101892.16;5052934;28;20045;-66
2022/10/29 04:17:22;;;;;;;11.23;8.38;;;;;;;17.78;61.55;101893.28;5055560;28;20040;-66
2022/10/29 04:19:48;;;;;;;15.52;8.90;;;;;;;17.77;61.67;101879.81;5072403;28;20102;-66
2022/10/29 04:22:15;;;;;;;10.88;8.30;;;;;;;17.74;61.99;101869.22;5072309;28;20045;-66
2022/10/29 04:25:05;;;;;;;9.93;7.97;;;;;;;17.71;61.95;101853.16;5072939;28;20128;-67
2022/10/29 04:27:55;;;;;;;14.88;10.52;;;;;;;17.67;61.84;101851.72;5057560;28;20124;-66
2022/10/29 04:30:42;;;;;;;16.98;10.80;;;;;;;17.65;61.69;101850.94;5054038;28;20100;-67
2022/10/29 04:33:08;;;;;;;19.65;12.05;;;;;;;17.64;62.03;101852.81;5052520;28;20491;-66
2022/10/29 04:35:35;;;;;;;25.63;13.02;;;;;;;17.64;62.06;101857.38;5052370;28;20437;-66
2022/10/29 04:38:10;;;;;;;20.13;12.93;;;;;;;17.64;62.07;101860.09;5052278;28;20048;-66
2022/10/29 04:40:36;;;;;;;19.00;12.15;;;;;;;17.65;62.42;101868.09;5053114;28;20414;-66
2022/10/29 04:43:03;;;;;;;19.73;12.90;;;;;;;17.68;62.47;101857.00;5052109;28;20049;-65
2022/10/29 04:45:29;;;;;;;21.33;13.00;;;;;;;17.72;62.51;101865.75;5051751;28;20091;-66
2022/10/29 04:48:00;;;;;;;18.73;12.65;;;;;;;17.75;62.12;101851.91;5051033;28;20075;-67
2022/10/29 04:50:27;;;;;;;22.95;13.13;;;;;;;17.77;62.50;101849.94;5050915;28;20041;-67
2022/10/29 04:52:58;;;;;;;32.65;13.60;;;;;;;17.82;62.22;101846.81;5050826;28;20091;-66
2022/10/29 04:55:27;;;;;;;21.65;13.48;;;;;;;17.84;62.68;101840.28;5051205;28;20491;-66
2022/10/29 04:57:54;;;;;;;23.40;13.50;;;;;;;17.87;62.29;101840.03;5051023;28;20580;-66
2022/10/29 05:00:22;;;;;;;21.70;13.02;;;;;;;17.89;62.42;101843.47;5051064;28;20045;-66
2022/10/29 05:02:50;;;;;;;22.98;14.05;;;;;;;17.93;62.34;101854.94;5051109;28;20044;-66
2022/10/29 05:05:21;;;;;;;24.52;13.27;;;;;;;17.94;62.29;101856.66;5053500;28;20041;-66
2022/10/29 05:07:48;;;;;;;21.67;13.20;;;;;;;17.95;62.83;101856.53;5057033;28;20442;-66
2022/10/29 05:10:15;;;;;;;23.33;13.80;;;;;;;17.97;62.74;101851.81;5071628;28;20117;-66
2022/10/29 05:12:41;;;;;;;20.75;13.50;;;;;;;17.99;62.68;101848.97;5076011;28;20070;-66
2022/10/29 05:15:09;;;;;;;22.10;13.15;;;;;;;18.00;62.47;101847.97;5077594;28;20425;-67
2022/10/29 05:17:37;;;;;;;20.08;13.32;;;;;;;18.02;62.72;101843.28;5077844;28;20107;-67
2022/10/29 05:20:04;;;;;;;25.05;13.73;;;;;;;18.02;62.44;101838.69;5075198;28;20768;-66
2022/10/29 05:22:31;;;;;;;25.67;13.40;;;;;;;18.01;62.33;101841.56;5077858;28;20087;-66
2022/10/29 05:24:57;;;;;;;23.73;13.23;;;;;;;18.00;62.63;101835.25;5078371;28;20097;-66
2022/10/29 05:27:24;;;;;;;23.35;12.95;;;;;;;17.99;62.61;101835.38;5075837;28;20117;-66
2022/10/29 05:29:51;;;;;;;21.00;13.45;;;;;;;17.98;62.54;101839.97;5064146;28;20091;-66
2022/10/29 05:32:17;;;;;;;21.67;12.73;;;;;;;17.97;62.35;101830.09;5071740;28;20049;-66
2022/10/29 05:34:44;;;;;;;25.70;13.02;;;;;;;17.97;62.28;101832.81;5075628;28;20048;-66
2022/10/29 05:37:11;;;;;;;22.65;13.05;;;;;;;17.99;62.35;101827.22;5075022;28;20056;-65
2022/10/29 05:39:38;;;;;;;23.30;13.20;;;;;;;17.98;62.74;101831.81;5064138;28;20118;-66
2022/10/29 05:42:05;;;;;;;25.73;13.07;;;;;;;18.01;62.67;101838.84;5055268;28;20438;-66
2022/10/29 05:44:36;;;;;;;18.92;12.73;;;;;;;18.01;62.39;101836.97;5055415;28;20507;-66
2022/10/29 05:47:04;;;;;;;19.85;11.90;;;;;;;18.02;62.51;101826.97;5055549;28;20052;-66
2022/10/29 05:49:31;;;;;;;16.65;12.43;;;;;;;18.04;62.32;101827.69;5060884;28;20044;-66
2022/10/29 05:51:57;;;;;;;19.27;12.55;;;;;;;18.03;62.45;101824.13;5074724;28;20037;-66
2022/10/29 05:54:25;;;;;;;21.90;13.73;;;;;;;18.04;62.85;101824.97;5073847;28;20044;-66
2022/10/29 05:56:52;;;;;;;26.17;12.13;;;;;;;18.05;62.76;101818.53;5074001;28;20425;-65
2022/10/29 05:59:18;;;;;;;21.73;12.60;;;;;;;18.06;62.55;101818.41;5071945;28;20040;-66
2022/10/29 06:01:45;;;;;;;20.30;12.48;;;;;;;18.08;62.71;101801.97;5073385;28;20071;-66
2022/10/29 06:04:12;;;;;;;23.73;13.18;;;;;;;18.10;62.70;101813.56;5073681;28;20128;-66
2022/10/29 06:06:39;;;;;;;21.70;13.02;;;;;;;18.12;62.99;101810.72;5073446;28;20041;-66
2022/10/29 06:09:06;;;;;;;19.40;12.43;;;;;;;18.13;62.80;101817.88;5068528;28;20040;-66
2022/10/29 06:11:32;;;;;;;21.23;12.30;;;;;;;18.14;62.62;101808.72;5053474;28;20045;-66
2022/10/29 06:13:59;;;;;;;23.63;12.65;;;;;;;18.13;62.49;101812.44;5053335;28;20041;-66
2022/10/29 06:16:25;;;;;;;21.58;12.30;;;;;;;18.14;62.67;101804.16;5051476;28;20049;-66
2022/10/29 06:18:52;;;;;;;20.90;12.55;;;;;;;18.14;62.56;101801.44;5019295;28;20438;-66
2022/10/29 06:21:18;;;;;;;22.35;11.95;;;;;;;18.15;62.81;101797.72;5053207;28;20079;-66
2022/10/29 06:23:45;;;;;;;20.27;12.45;;;;;;;18.15;62.88;101797.72;5053129;28;20095;-66
2022/10/29 06:26:11;;;;;;;23.10;13.68;;;;;;;18.16;63.06;101788.56;5053189;28;20114;-66
2022/10/29 06:28:38;;;;;;;20.52;12.13;;;;;;;18.18;62.89;101782.97;5054618;28;20037;-66
2022/10/29 06:31:04;;;;;;;23.33;12.38;;;;;;;18.21;62.77;101793.59;5053069;28;20498;-66
2022/10/29 06:33:31;;;;;;;21.73;13.57;;;;;;;18.22;62.65;101789.88;5052696;28;20095;-66
2022/10/29 06:35:59;;;;;;;19.83;12.43;;;;;;;18.25;62.72;101803.19;5052831;28;20106;-67
2022/10/29 06:38:26;;;;;;;22.05;12.48;;;;;;;18.26;62.64;101802.19;5054116;28;20040;-67
2022/10/29 06:40:52;;;;;;;22.15;12.50;;;;;;;18.27;62.94;101814.81;5052984;28;20445;-67
2022/10/29 06:43:19;;;;;;;23.88;12.65;;;;;;;18.28;62.68;101819.25;5052676;28;20049;-67
2022/10/29 06:45:48;;;;;;;24.60;13.77;;;;;;;18.31;63.05;101818.97;5052874;28;20045;-67
2022/10/29 06:48:15;;;;;;;25.75;11.75;;;;;;;18.34;62.84;101822.28;5063596;28;20056;-67
2022/10/29 06:50:47;;;;;;;21.35;12.20;;;;;;;18.37;62.96;101813.00;5072758;28;20052;-67
2022/10/29 06:53:15;;;;;;;28.13;12.18;;;;;;;18.39;62.68;101819.16;5072371;28;20114;-67
2022/10/29 06:55:42;;;;;;;24.67;13.77;;;;;;;18.39;63.12;101824.59;5072964;28;20532;-68
2022/10/29 06:58:14;;;;;;;27.95;13.23;;;;;;;18.40;62.96;101818.16;5054539;28;20060;-67
2022/10/29 07:00:42;;;;;;;20.33;11.70;;;;;;;18.40;63.05;101832.63;5071394;28;20047;-67
2022/10/29 07:03:19;;;;;;;20.25;12.15;;;;;;;18.42;63.01;101837.91;5050827;28;20037;-66
2022/10/29 07:05:55;;;;;;;21.65;12.52;;;;;;;18.42;63.09;101822.47;5053256;28;20041;-65
2022/10/29 07:08:21;;;;;;;;;;;;;;;18.44;62.91;101825.03;5057594;28;20070;-66
2022/10/29 07:10:52;;;;;;;26.08;12.32;;;;;;;18.47;62.83;101826.63;5072254;28;20286;-66
2022/10/29 07:13:19;;;;;;;21.42;12.82;;;;;;;18.45;62.91;101825.91;5071578;28;20044;-66
2022/10/29 07:15:45;;;;;;;24.98;12.30;;;;;;;18.42;62.94;101825.19;5071663;28;20090;-66
2022/10/29 07:18:12;;;;;;;24.83;13.00;;;;;;;18.38;62.85;101826.44;5071733;28;20086;-66
2022/10/29 07:20:42;;;;;;;19.10;13.20;;;;;;;18.37;63.30;101829.31;5053532;28;20053;-65
2022/10/29 07:23:10;;;;;;;25.73;13.05;;;;;;;18.37;63.26;101819.28;5072160;28;20045;-66
2022/10/29 07:25:39;;;;;;;22.77;13.25;;;;;;;18.39;63.29;101813.72;5072119;28;20131;-66
2022/10/29 07:28:11;;;;;;;20.75;11.95;;;;;;;18.40;63.01;101820.88;5071619;28;20044;-66
2022/10/29 07:30:39;;;;;;;17.75;11.82;;;;;;;18.42;63.34;101819.75;5072218;28;20498;-66
2022/10/29 07:33:05;;;;;;;26.13;12.65;;;;;;;18.45;63.25;101817.75;5071912;28;20041;-66
2022/10/29 07:35:36;;;;;;;17.90;12.00;;;;;;;18.47;63.50;101821.19;5072201;28;20032;-66
2022/10/29 07:38:05;;;;;;;27.10;13.60;;;;;;;18.51;63.26;101825.34;5071979;28;20102;-65
2022/10/29 07:40:37;;;;;;;22.88;13.60;;;;;;;18.55;63.19;101824.94;5069251;28;20037;-66
2022/10/29 07:43:03;;;;;;;21.38;11.98;;;;;;;18.59;63.12;101815.53;5059642;28;20032;-65
2022/10/29 07:45:31;;;;;;;25.80;11.85;;;;;;;18.63;63.18;101808.00;5065661;28;20103;-65
2022/10/29 07:48:03;;;;;;;24.20;12.70;;;;;;;18.67;63.28;101801.28;5052796;28;20033;-66
2022/10/29 07:50:30;;;;;;;20.40;11.68;;;;;;;18.69;63.54;101796.56;5051817;28;20041;-65
2022/10/29 07:53:01;;;;;;;24.23;13.35;;;;;;;18.72;63.27;101794.44;5051477;28;20056;-65
2022/10/29 07:55:29;;;;;;;22.02;12.68;;;;;;;18.77;63.50;101791.28;5052099;28;20037;-65
2022/10/29 07:58:05;;;;;;;21.00;12.18;;;;;;;18.81;63.21;101789.16;5066596;28;20111;-65
2022/10/29 08:00:36;;;;;;;25.33;13.13;;;;;;;18.85;63.32;101798.75;5071419;28;20048;-66
2022/10/29 08:03:04;;;;;;;22.02;12.68;;;;;;;18.89;63.51;101800.19;5053314;28;20033;-66
2022/10/29 08:05:33;;;;;;;22.55;13.43;;;;;;;18.93;63.37;101797.06;5071883;28;20040;-66
2022/10/29 08:07:59;;;;;;;19.40;12.95;;;;;;;18.97;63.33;101803.94;5071550;28;20060;-65
2022/10/29 08:10:27;;;;;;;21.83;13.15;;;;;;;18.99;63.19;101801.09;5055476;28;20483;-66
2022/10/29 08:12:56;;;;;;;24.10;12.98;;;;;;;19.04;63.25;101796.06;5051589;28;20463;-66
2022/10/29 08:15:30;;;;;;;23.08;13.32;;;;;;;19.09;63.65;101796.50;5051962;28;20045;-66
2022/10/29 08:17:57;;;;;;;23.65;12.90;;;;;;;19.14;63.35;101787.91;5060332;28;20044;-66
2022/10/29 08:20:26;;;;;;;21.25;13.35;;;;;;;19.19;63.53;101788.34;5056337;28;20098;-66
2022/10/29 08:22:53;;;;;;;18.08;12.35;;;;;;;19.23;63.48;101787.06;5071673;28;20040;-66
2022/10/29 08:25:24;;;;;;;23.00;13.68;;;;;;;19.28;63.17;101785.63;5072172;28;20044;-67
2022/10/29 08:28:01;;;;;;;23.35;13.02;;;;;;;19.34;63.21;101792.41;5072399;28;20083;-67
2022/10/29 08:30:28;;;;;;;25.05;13.88;;;;;;;19.41;63.24;101789.97;5072298;28;20436;-66
2022/10/29 08:32:55;;;;;;;19.33;12.00;;;;;;;19.45;63.63;101783.22;5069874;28;20048;-66
2022/10/29 08:35:23;;;;;;;19.48;12.82;;;;;;;19.52;63.41;101782.53;5071339;28;20040;-66
2022/10/29 08:37:50;;;;;;;19.98;13.02;;;;;;;19.59;63.52;101770.06;5070992;28;20044;-65
2022/10/29 08:40:42;;;;;;;22.60;13.50;;;;;;;19.65;63.52;101777.66;5057939;28;20045;-69
2022/10/29 08:43:33;;;;;;;19.88;13.60;;;;;;;19.74;63.22;101781.38;5055060;28;20049;-66
2022/10/29 08:46:00;;;;;;;22.92;13.43;;;;;;;19.82;63.45;101777.91;5058639;28;20533;-66
2022/10/29 08:48:40;;;;;;;19.60;12.40;;;;;;;19.88;63.31;101780.91;5072998;28;20037;-66
2022/10/29 08:51:20;;;;;;;19.67;12.45;;;;;;;19.95;63.35;101782.03;5077423;28;20057;-66
2022/10/29 08:53:50;;;;;;;23.23;13.13;;;;;;;20.03;63.53;101775.00;5075790;28;20033;-66
2022/10/29 08:56:53;;;;;;;21.77;12.35;;;;;;;20.09;63.40;101780.75;5077915;28;20123;-66
2022/10/29 08:59:23;;;;;;;20.77;12.18;;;;;;;20.14;63.41;101783.03;5076414;28;20048;-66
2022/10/29 09:01:53;;;;;;;21.60;12.35;;;;;;;20.20;63.31;101790.63;5057742;28;20041;-67
2022/10/29 09:04:39;;;;;;;20.92;11.73;;;;;;;20.26;63.27;101788.16;5058709;28;20474;-66
2022/10/29 09:07:06;;;;;;;;;;;;;;;20.35;63.15;101782.81;5056949;28;20107;-67
2022/10/29 09:10:11;;;;;;;23.90;12.82;;;;;;;20.45;63.22;101780.94;5053939;28;20560;-66
2022/10/29 09:12:53;;;;;;;19.85;12.07;;;;;;;20.52;63.28;101779.31;5054400;28;20483;-66
2022/10/29 09:15:40;;;;;;;18.95;12.10;;;;;;;20.59;63.08;101774.97;5054634;28;20110;-66
2022/10/29 09:18:43;;;;;;;20.15;11.88;;;;;;;20.66;63.01;101767.03;5054036;28;20635;-66
2022/10/29 09:21:47;;;;;;;19.17;12.27;;;;;;;20.71;63.02;101765.56;5036430;28;20391;-66
2022/10/29 09:24:39;;;;;;;25.00;12.95;;;;;;;20.77;62.74;101758.63;5054249;28;20071;-67
2022/10/29 09:27:47;;;;;;;21.50;11.60;;;;;;;20.83;62.63;101755.31;5036000;28;20576;-67
2022/10/29 09:30:17;;;;;;;19.85;11.77;;;;;;;20.91;62.77;101749.94;5055327;28;20060;-66
2022/10/29 09:33:06;;;;;;;18.10;10.98;;;;;;;20.98;62.74;101763.84;5074005;28;20037;-65
2022/10/29 09:35:45;;;;;;;19.42;11.27;;;;;;;21.05;62.20;101762.22;5073640;28;20597;-66
2022/10/29 09:38:17;;;;;;;19.38;11.10;;;;;;;21.13;62.64;101759.56;5055847;28;20098;-66
2022/10/29 09:40:44;;;;;;;18.08;11.18;;;;;;;21.19;62.53;101756.22;5054113;28;20110;-66
2022/10/29 09:44:12;;;;;;;18.25;11.48;;;;;;;21.25;62.15;101764.66;5055820;28;20049;-67
2022/10/29 09:47:27;;;;;;;19.13;11.65;;;;;;;21.36;62.17;101762.72;5035685;28;20049;-67
2022/10/29 09:50:09;;;;;;;19.45;11.65;;;;;;;21.40;62.23;101762.25;5074003;28;20056;-67
2022/10/29 09:52:40;;;;;;;20.00;11.95;;;;;;;21.44;62.00;101751.84;5055814;28;20045;-67
2022/10/29 09:55:24;;;;;;;16.85;11.20;;;;;;;21.47;61.79;101746.94;5039278;28;20498;-66
2022/10/29 09:57:52;;;;;;;20.33;11.80;;;;;;;21.53;61.74;101762.69;5073794;28;20037;-66
2022/10/29 10:00:28;;;;;;;18.92;11.15;;;;;;;21.56;61.75;101754.22;5073773;28;20422;-66
2022/10/29 10:03:14;;;;;;;20.67;10.80;;;;;;;21.60;61.65;101740.22;5073869;28;20437;-66
2022/10/29 10:05:55;;;;;;;;;;;;;;;21.67;61.66;101741.31;5074200;28;20044;-66
2022/10/29 10:08:21;;;;;;;20.92;11.10;;;;;;;21.75;61.46;101741.38;5070656;28;19975;-66
2022/10/29 10:10:53;;;;;;;16.92;11.45;;;;;;;21.78;61.38;101733.69;5073343;28;20461;-67
2022/10/29 10:13:25;;;;;;;18.55;11.23;;;;;;;21.82;61.46;101717.81;5073843;28;20090;-66
2022/10/29 10:15:56;;;;;;;21.05;10.32;;;;;;;21.87;61.52;101718.19;5056171;28;20036;-67
2022/10/29 10:18:32;;;;;;;24.77;10.73;;;;;;;21.94;61.33;101711.06;5071105;28;20482;-66
2022/10/29 10:21:09;;;;;;;21.60;11.70;;;;;;;22.02;61.32;101707.53;5073542;28;20045;-66
2022/10/29 10:23:53;;;;;;;18.77;11.10;;;;;;;22.12;61.22;101714.63;5073537;28;20404;-67
2022/10/29 10:26:35;;;;;;;20.98;11.40;;;;;;;22.26;60.92;101720.50;5073976;28;20421;-66
2022/10/29 10:29:21;;;;;;;19.90;11.43;;;;;;;22.44;60.97;101729.50;5055340;28;20482;-67
2022/10/29 10:31:55;;;;;;;18.98;10.85;;;;;;;22.65;61.18;101721.69;5055326;28;20048;-67
2022/10/29 10:34:35;;;;;;;16.13;10.65;;;;;;;22.88;60.89;101719.22;5073783;28;20044;-66
2022/10/29 10:37:17;;;;;;;19.40;11.18;;;;;;;23.14;60.83;101722.72;5066678;28;20461;-66
2022/10/29 10:39:53;;;;;;;20.85;9.50;;;;;;;23.39;60.46;101717.25;5073218;28;20047;-67
2022/10/29 10:42:31;;;;;;;16.33;8.80;;;;;;;23.63;60.12;101708.19;5055274;28;20098;-67
2022/10/29 10:45:24;;;;;;;15.80;7.80;;;;;;;23.88;59.82;101715.38;5055736;28;20388;-67
2022/10/29 10:47:57;;;;;;;15.70;8.50;;;;;;;24.13;59.20;101715.28;5055924;28;20471;-66
2022/10/29 10:50:35;;;;;;;17.60;9.00;;;;;;;24.33;59.12;101709.25;5073587;28;20070;-67
2022/10/29 10:53:13;;;;;;;15.52;7.55;;;;;;;24.53;58.66;101708.84;5055584;28;20106;-66
2022/10/29 10:55:51;;;;;;;15.23;7.55;;;;;;;24.67;58.09;101700.69;5074748;28;20094;-67
2022/10/29 10:58:34;;;;;;;13.10;7.15;;;;;;;24.83;57.87;101694.25;5054109;28;20415;-66
2022/10/29 11:01:13;;;;;;;15.07;5.70;;;;;;;24.99;57.53;101694.16;5053321;28;20102;-67
2022/10/29 11:04:06;;;;;;;10.57;5.30;;;;;;;25.15;56.98;101686.81;5036465;28;20479;-67
2022/10/29 11:06:39;;;;;;;13.52;5.78;;;;;;;25.27;56.77;101693.63;5051060;28;20056;-67
2022/10/29 11:09:22;;;;;;;8.98;5.20;;;;;;;25.37;56.03;101685.13;5071877;28;20055;-66
2022/10/29 11:11:58;;;;;;;10.98;6.25;;;;;;;25.49;55.99;101678.13;5056544;28;20044;-66
2022/10/29 11:14:33;;;;;;;12.75;5.32;;;;;;;25.58;55.47;101677.88;5076324;28;20066;-66
2022/10/29 11:17:01;;;;;;;12.88;5.47;;;;;;;25.67;55.17;101678.66;5074155;28;20060;-67
2022/10/29 11:19:44;;;;;;;11.70;5.68;;;;;;;25.74;54.50;101684.28;5044041;28;20091;-67
2022/10/29 11:22:21;;;;;;;12.82;5.30;;;;;;;25.85;54.28;101694.81;5053374;28;20040;-67
2022/10/29 11:25:01;;;;;;;12.88;6.35;;;;;;;25.93;53.96;101692.81;5035819;28;20075;-67
2022/10/29 11:27:46;;;;;;;15.02;6.10;;;;;;;26.05;53.66;101706.16;5034487;28;20041;-67
2022/10/29 11:30:18;;;;;;;14.15;5.45;;;;;;;26.15;53.26;101692.94;5053353;28;20037;-67
2022/10/29 11:33:16;;;;;;;13.00;6.32;;;;;;;26.26;53.10;101686.97;5052237;28;20040;-66
2022/10/29 11:35:48;;;;;;;15.68;5.30;;;;;;;26.40;53.22;101682.50;5052614;28;20045;-67
2022/10/29 11:38:24;;;;;;;11.13;5.00;;;;;;;26.53;52.91;101688.19;5066067;28;20057;-67